createdAt,value
2019-05-23T00:01:43.233Z,27.77
2019-05-23T00:04:44.555Z,19.98
2019-05-23T00:07:38.603Z,24.67
2019-05-23T00:10:37.527Z,22.82
2019-05-23T00:13:36.390Z,17.62
2019-05-23T00:16:16.435Z,24.63
2019-05-23T00:19:03.546Z,19.73
2019-05-23T00:21:39.739Z,21.35
2019-05-23T00:24:18.047Z,27.77
2019-05-23T00:26:56.599Z,23.80
2019-05-23T00:29:35.117Z,17.70
2019-05-23T00:32:13.759Z,20.55
2019-05-23T00:34:50.469Z,24.47
2019-05-23T00:37:27.094Z,20.75
2019-05-23T00:40:04.157Z,19.85
2019-05-23T00:42:40.014Z,23.07
2019-05-23T00:45:17.548Z,22.98
2019-05-23T00:48:03.088Z,17.82
2019-05-23T00:50:39.244Z,24.35
2019-05-23T00:53:19.943Z,19.48
2019-05-23T00:55:55.845Z,24.30
2019-05-23T00:58:32.814Z,18.40
2019-05-23T01:01:14.394Z,19.23
2019-05-23T01:03:52.328Z,16.90
2019-05-23T01:06:30.161Z,19.32
2019-05-23T01:09:09.412Z,20.12
2019-05-23T01:11:47.346Z,22.10
2019-05-23T01:14:25.755Z,18.35
2019-05-23T01:17:03.448Z,21.55
2019-05-23T01:19:45.130Z,24.10
2019-05-23T01:22:21.366Z,20.30
2019-05-23T01:25:03.032Z,15.08
2019-05-23T01:27:40.173Z,23.73
2019-05-23T01:30:21.596Z,17.42
2019-05-23T01:33:05.225Z,17.82
2019-05-23T01:35:46.411Z,16.42
2019-05-23T01:38:24.777Z,18.70
2019-05-23T01:41:01.225Z,19.67
2019-05-23T01:43:37.297Z,15.25
2019-05-23T01:46:18.867Z,21.62
2019-05-23T01:48:54.637Z,20.32
2019-05-23T01:51:31.342Z,18.07
2019-05-23T01:54:09.624Z,24.02
2019-05-23T01:56:47.359Z,17.98
2019-05-23T01:59:22.937Z,18.52
2019-05-23T02:01:58.766Z,26.65
2019-05-23T02:04:34.728Z,22.67
2019-05-23T02:07:12.080Z,29.37
2019-05-23T02:09:50.056Z,22.93
2019-05-23T02:12:30.369Z,17.73
2019-05-23T02:15:07.714Z,17.40
2019-05-23T02:17:48.454Z,16.50
2019-05-23T02:20:24.742Z,18.60
2019-05-23T02:23:01.158Z,18.60
2019-05-23T02:25:38.301Z,15.78
2019-05-23T02:30:52.157Z,22.23
2019-05-23T02:33:28.858Z,22.40
2019-05-23T02:36:06.554Z,19.17
2019-05-23T02:38:57.735Z,22.42
2019-05-23T02:41:37.540Z,18.98
2019-05-23T02:44:19.165Z,23.00
2019-05-23T02:47:04.087Z,21.62
2019-05-23T02:49:41.780Z,20.23
2019-05-23T02:52:25.304Z,18.00
2019-05-23T02:55:01.628Z,68.95
2019-05-23T02:57:37.605Z,19.23
2019-05-23T03:00:50.773Z,16.37
2019-05-23T03:03:11.539Z,36.23
2019-05-23T03:05:49.120Z,17.60
2019-05-23T03:08:26.435Z,20.20
2019-05-23T03:11:23.901Z,25.23
2019-05-23T03:14:01.505Z,56.63
2019-05-23T03:16:38.561Z,17.45
2019-05-23T03:19:25.346Z,19.60
2019-05-23T03:22:07.130Z,15.45
2019-05-23T03:24:43.484Z,17.52
2019-05-23T03:27:24.661Z,14.73
2019-05-23T03:30:00.586Z,16.17
2019-05-23T03:32:43.095Z,15.68
2019-05-23T03:35:30.827Z,14.13
2019-05-23T03:38:09.542Z,15.90
2019-05-23T03:40:46.974Z,13.50
2019-05-23T03:43:22.870Z,12.10
2019-05-23T03:46:11.941Z,17.67
2019-05-23T03:48:49.807Z,13.62
2019-05-23T03:51:26.212Z,16.70
2019-05-23T03:54:05.088Z,14.15
2019-05-23T03:56:47.635Z,15.48
2019-05-23T03:59:24.760Z,18.80
2019-05-23T04:02:01.725Z,14.87
2019-05-23T04:04:37.446Z,15.03
2019-05-23T04:07:17.069Z,11.73
2019-05-23T04:09:54.578Z,14.40
2019-05-23T04:12:32.575Z,11.08
2019-05-23T04:15:09.719Z,9.33
2019-05-23T04:17:47.170Z,15.23
2019-05-23T04:20:24.715Z,14.53
2019-05-23T04:23:00.621Z,14.83
2019-05-23T04:25:36.476Z,17.90
2019-05-23T04:28:16.992Z,15.57
2019-05-23T04:30:55.350Z,16.48
2019-05-23T04:33:32.509Z,11.25
2019-05-23T04:36:09.567Z,13.65
2019-05-23T04:38:45.481Z,22.42
2019-05-23T04:41:23.210Z,23.00
2019-05-23T04:44:00.811Z,14.25
2019-05-23T04:46:43.268Z,15.05
2019-05-23T04:49:21.009Z,20.25
2019-05-23T04:51:57.891Z,16.65
2019-05-23T04:54:35.319Z,18.20
2019-05-23T04:57:12.695Z,13.80
2019-05-23T04:59:52.270Z,11.88
2019-05-23T05:02:34.458Z,16.35
2019-05-23T05:05:11.003Z,17.37
2019-05-23T05:07:48.108Z,17.95
2019-05-23T05:10:31.362Z,9.63
2019-05-23T05:13:11.486Z,12.07
2019-05-23T05:15:58.243Z,11.90
2019-05-23T05:18:36.771Z,13.30
2019-05-23T05:21:16.460Z,14.60
2019-05-23T05:23:54.283Z,12.18
2019-05-23T05:26:44.260Z,16.67
2019-05-23T05:29:21.442Z,10.85
2019-05-23T05:32:03.695Z,8.63
2019-05-23T05:34:37.799Z,61.95
2019-05-23T05:39:52.702Z,12.15
2019-05-23T05:42:30.722Z,16.12
2019-05-23T05:45:07.943Z,12.43
2019-05-23T05:47:49.928Z,13.40
2019-05-23T05:50:26.872Z,25.32
2019-05-23T05:53:09.765Z,15.83
2019-05-23T05:55:49.552Z,15.53
2019-05-23T05:58:35.337Z,13.43
2019-05-23T06:01:31.209Z,15.90
2019-05-23T06:04:02.141Z,14.55
2019-05-23T06:06:42.554Z,16.95
2019-05-23T06:09:27.634Z,11.18
2019-05-23T06:12:03.464Z,13.62
2019-05-23T06:14:40.426Z,19.10
2019-05-23T06:17:22.010Z,8.93
2019-05-23T06:20:00.346Z,12.95
2019-05-23T06:22:40.902Z,13.45
2019-05-23T06:25:19.018Z,10.08
2019-05-23T06:27:59.425Z,12.40
2019-05-23T06:30:41.477Z,13.08
2019-05-23T06:33:23.059Z,14.10
2019-05-23T06:35:56.140Z,11.12
2019-05-23T06:38:35.297Z,12.90
2019-05-23T06:41:12.674Z,13.28
2019-05-23T06:43:50.984Z,14.90
2019-05-23T06:46:28.095Z,11.53
2019-05-23T06:49:10.854Z,16.35
2019-05-23T06:51:54.476Z,14.80
2019-05-23T06:54:38.940Z,16.95
2019-05-23T06:57:16.416Z,13.53
2019-05-23T06:59:56.527Z,15.15
2019-05-23T07:02:42.204Z,15.55
2019-05-23T07:05:21.428Z,17.27
2019-05-23T07:07:58.635Z,11.85
2019-05-23T07:10:34.542Z,12.30
2019-05-23T07:13:13.324Z,15.03
2019-05-23T07:15:57.969Z,19.27
2019-05-23T07:18:35.410Z,13.53
2019-05-23T07:21:12.251Z,16.15
2019-05-23T07:23:53.230Z,17.07
2019-05-23T07:29:24.560Z,21.05
2019-05-23T07:32:01.425Z,32.48
2019-05-23T07:34:38.168Z,20.45
2019-05-23T07:37:15.644Z,19.92
2019-05-23T07:40:00.693Z,18.42
2019-05-23T07:42:43.588Z,19.48
2019-05-23T07:45:52.740Z,20.70
2019-05-23T07:48:32.430Z,25.68
2019-05-23T07:51:08.335Z,22.22
2019-05-23T07:53:49.471Z,21.15
2019-05-23T07:56:31.396Z,22.62
2019-05-23T07:59:11.798Z,23.70
2019-05-23T08:01:53.112Z,22.32
2019-05-23T08:04:28.997Z,25.50
2019-05-23T08:09:42.776Z,41.00
2019-05-23T08:12:19.285Z,25.20
2019-05-23T08:14:55.456Z,30.52
2019-05-23T08:17:33.324Z,34.90
2019-05-23T08:20:09.699Z,43.33
2019-05-23T08:25:27.635Z,25.52
2019-05-23T08:28:03.597Z,26.07
2019-05-23T08:30:40.575Z,30.62
2019-05-23T08:33:19.435Z,29.32
2019-05-23T08:35:55.246Z,33.45
2019-05-23T08:41:10.399Z,44.93
2019-05-23T08:43:47.031Z,48.45
2019-05-23T08:46:25.296Z,35.40
2019-05-23T08:49:05.483Z,35.03
2019-05-23T08:51:41.144Z,36.42
2019-05-23T08:54:20.610Z,34.38
2019-05-23T08:57:00.595Z,39.42
2019-05-23T08:59:36.639Z,36.88
2019-05-23T09:02:17.832Z,35.13
2019-05-23T09:05:04.372Z,32.42
2019-05-23T09:07:33.553Z,42.05
2019-05-23T09:10:12.802Z,37.38
2019-05-23T09:12:48.469Z,35.52
2019-05-23T09:15:26.778Z,32.03
2019-05-23T09:18:04.210Z,41.37
2019-05-23T09:20:40.573Z,35.38
2019-05-23T09:25:56.874Z,45.50
2019-05-23T09:28:32.649Z,52.08
2019-05-23T09:31:11.866Z,87.50
2019-05-23T09:33:47.435Z,46.20
2019-05-23T09:36:23.520Z,57.27
2019-05-23T09:38:59.676Z,51.00
2019-05-23T09:41:36.181Z,35.25
2019-05-23T09:44:13.356Z,52.65
2019-05-23T09:46:49.622Z,47.03
2019-05-23T09:49:25.268Z,54.03
2019-05-23T09:52:03.210Z,64.87
2019-05-23T09:54:39.079Z,36.50
2019-05-23T09:57:19.961Z,38.13
2019-05-23T09:59:57.316Z,40.58
2019-05-23T10:02:37.582Z,35.98
2019-05-23T10:05:17.380Z,39.88
2019-05-23T10:07:53.190Z,58.05
2019-05-23T10:10:34.686Z,70.12
2019-05-23T10:13:16.239Z,59.83
2019-05-23T10:15:53.747Z,65.80
2019-05-23T10:18:36.478Z,59.67
2019-05-23T10:21:14.746Z,53.75
2019-05-23T10:23:51.035Z,73.45
2019-05-23T10:26:28.050Z,98.15
2019-05-23T10:29:05.516Z,67.60
2019-05-23T10:31:41.167Z,47.35
2019-05-23T10:34:18.733Z,55.30
2019-05-23T10:36:54.367Z,52.60
2019-05-23T10:39:32.377Z,50.95
2019-05-23T10:42:08.327Z,51.88
2019-05-23T10:44:44.953Z,57.05
2019-05-23T10:47:21.212Z,45.92
2019-05-23T10:49:58.046Z,80.17
2019-05-23T10:52:35.721Z,52.10
2019-05-23T10:55:14.124Z,47.05
2019-05-23T10:57:51.615Z,54.63
2019-05-23T11:00:29.711Z,42.70
2019-05-23T11:03:08.046Z,39.48
2019-05-23T11:05:47.047Z,39.35
2019-05-23T11:08:29.293Z,44.03
2019-05-23T11:11:05.132Z,274.75
2019-05-23T11:13:43.656Z,443.40
2019-05-23T11:16:20.420Z,398.00
2019-05-23T11:18:56.352Z,439.70
2019-05-23T11:21:33.849Z,476.45
2019-05-23T11:24:11.274Z,485.95
2019-05-23T11:26:52.545Z,350.32
2019-05-23T11:29:30.091Z,243.37
2019-05-23T11:32:19.835Z,237.20
2019-05-23T11:34:53.779Z,235.53
2019-05-23T11:37:31.779Z,187.97
2019-05-23T11:40:09.522Z,127.87
2019-05-23T11:42:48.206Z,98.40
2019-05-23T11:45:26.412Z,100.25
2019-05-23T11:48:02.293Z,75.00
2019-05-23T11:50:38.453Z,74.55
2019-05-23T11:53:16.720Z,79.85
2019-05-23T11:55:57.312Z,59.77
2019-05-23T11:58:34.209Z,86.42
2019-05-23T12:01:20.987Z,103.72
2019-05-23T12:03:57.948Z,100.12
2019-05-23T12:06:53.544Z,88.52
2019-05-23T12:09:16.876Z,87.92
2019-05-23T12:11:54.167Z,75.17
2019-05-23T12:14:30.130Z,75.70
2019-05-23T12:17:07.010Z,66.07
2019-05-23T12:19:44.509Z,55.25
2019-05-23T12:22:26.134Z,55.98
2019-05-23T12:25:20.782Z,54.98
2019-05-23T12:27:47.388Z,48.15
2019-05-23T12:30:25.114Z,44.13
2019-05-23T12:33:04.795Z,47.33
2019-05-23T12:35:40.344Z,55.95
2019-05-23T12:38:16.763Z,43.73
2019-05-23T12:41:03.343Z,43.83
2019-05-23T12:43:42.122Z,48.13
2019-05-23T12:46:25.086Z,42.38
2019-05-23T12:49:20.460Z,44.70
2019-05-23T12:52:00.981Z,44.67
2019-05-23T12:54:38.735Z,39.78
2019-05-23T12:57:16.983Z,41.95
2019-05-23T13:00:00.344Z,44.83
2019-05-23T13:02:37.210Z,43.78
2019-05-23T13:05:16.250Z,46.02
2019-05-23T13:10:54.308Z,47.08
2019-05-23T13:13:34.001Z,47.05
2019-05-23T13:16:12.617Z,45.38
2019-05-23T13:18:48.086Z,50.73
2019-05-23T13:21:25.360Z,48.30
2019-05-23T13:24:04.732Z,44.85
2019-05-23T13:26:44.138Z,46.13
2019-05-23T13:29:24.670Z,46.50
2019-05-23T13:32:04.368Z,46.05
2019-05-23T13:34:44.475Z,48.45
2019-05-23T13:37:25.529Z,45.67
2019-05-23T13:40:10.414Z,46.58
2019-05-23T13:45:45.071Z,48.63
2019-05-23T13:48:28.331Z,60.78
2019-05-23T13:51:12.936Z,62.25
2019-05-23T13:53:51.492Z,60.78
2019-05-23T13:56:30.655Z,54.03
2019-05-23T13:59:08.198Z,53.65
2019-05-23T14:01:49.009Z,50.52
2019-05-23T14:04:30.213Z,49.18
2019-05-23T14:07:11.718Z,49.42
2019-05-23T14:09:53.495Z,50.17
2019-05-23T14:12:47.062Z,48.00
2019-05-23T14:15:24.787Z,44.55
2019-05-23T14:18:12.735Z,53.10
2019-05-23T14:23:55.171Z,53.02
2019-05-23T14:26:39.091Z,52.08
2019-05-23T14:29:26.234Z,51.55
2019-05-23T14:32:28.379Z,48.15
2019-05-23T14:35:07.273Z,47.55
2019-05-23T14:38:08.450Z,53.52
2019-05-23T14:41:04.884Z,56.23
2019-05-23T14:43:46.944Z,51.30
2019-05-23T14:46:43.343Z,49.23
2019-05-23T14:49:25.109Z,51.18
2019-05-23T14:52:08.455Z,56.92
2019-05-23T14:54:47.865Z,52.35
2019-05-23T14:57:35.755Z,54.25
2019-05-23T15:00:14.631Z,50.92
2019-05-23T15:02:57.381Z,50.35
2019-05-23T15:05:36.829Z,54.83
2019-05-23T15:08:21.469Z,58.00
2019-05-23T15:10:58.976Z,51.40
2019-05-23T15:16:32.426Z,57.90
2019-05-23T15:19:36.426Z,58.15
2019-05-23T15:21:57.042Z,59.08
2019-05-23T15:24:45.179Z,57.73
2019-05-23T15:27:24.819Z,56.63
2019-05-23T15:30:10.584Z,53.38
2019-05-23T15:32:56.855Z,58.15
2019-05-23T15:35:51.581Z,56.83
2019-05-23T15:38:38.059Z,51.95
2019-05-23T15:41:17.242Z,55.95
2019-05-23T15:43:55.452Z,54.83
2019-05-23T15:46:32.607Z,60.70
2019-05-23T15:49:21.951Z,57.23
2019-05-23T15:52:08.232Z,64.65
2019-05-23T15:54:49.584Z,62.45
2019-05-23T15:57:28.635Z,58.23
2019-05-23T16:00:12.870Z,65.45
2019-05-23T16:02:58.272Z,61.80
2019-05-23T16:05:42.832Z,54.60
2019-05-23T16:08:28.717Z,57.58
2019-05-23T16:11:12.116Z,70.60
2019-05-23T16:13:52.110Z,58.50
2019-05-23T16:16:32.565Z,63.42
2019-05-23T16:22:14.296Z,57.08
2019-05-23T16:24:56.738Z,62.40
2019-05-23T16:27:33.516Z,72.87
2019-05-23T16:30:13.459Z,63.45
2019-05-23T16:33:02.557Z,59.23
2019-05-23T16:35:43.118Z,60.08
2019-05-23T16:38:24.257Z,59.33
2019-05-23T16:41:06.308Z,60.30
2019-05-23T16:43:45.686Z,67.10
2019-05-23T16:46:27.020Z,66.45
2019-05-23T16:49:06.777Z,57.08
2019-05-23T16:51:46.788Z,57.40
2019-05-23T16:54:28.401Z,65.97
2019-05-23T16:57:26.179Z,64.32
2019-05-23T17:00:06.877Z,64.40
2019-05-23T17:02:47.000Z,74.00
2019-05-23T17:05:42.120Z,66.87
2019-05-23T17:08:19.599Z,58.85
2019-05-23T17:11:06.796Z,59.42
2019-05-23T17:13:45.530Z,56.83
2019-05-23T17:16:39.322Z,58.38
2019-05-23T17:19:21.494Z,68.83
2019-05-23T17:21:58.253Z,61.45
2019-05-23T17:24:46.989Z,58.33
2019-05-23T17:27:43.011Z,63.78
2019-05-23T17:30:29.064Z,63.05
2019-05-23T17:33:05.343Z,60.85
2019-05-23T17:35:42.998Z,60.37
2019-05-23T17:38:22.133Z,53.98
2019-05-23T17:41:00.228Z,57.98
2019-05-23T17:43:37.924Z,54.75
2019-05-23T17:46:13.854Z,50.67
2019-05-23T17:48:51.183Z,56.92
2019-05-23T17:51:27.711Z,59.45
2019-05-23T17:54:07.248Z,55.90
2019-05-23T17:56:44.990Z,52.70
2019-05-23T17:59:22.506Z,47.75
2019-05-23T18:02:00.028Z,52.30
2019-05-23T18:04:40.645Z,54.10
2019-05-23T18:07:22.854Z,53.33
2019-05-23T18:10:00.016Z,50.40
2019-05-23T18:12:38.011Z,54.50
2019-05-23T18:15:16.530Z,50.75
2019-05-23T18:17:52.483Z,55.05
2019-05-23T18:20:28.564Z,56.00
2019-05-23T18:23:05.965Z,54.25
2019-05-23T18:25:43.475Z,47.60
2019-05-23T18:28:24.602Z,55.12
2019-05-23T18:31:13.931Z,58.52
2019-05-23T18:33:52.685Z,45.65
2019-05-23T18:36:28.498Z,51.80
2019-05-23T18:41:40.240Z,44.60
2019-05-23T18:44:17.672Z,46.85
2019-05-23T18:46:58.708Z,47.05
2019-05-23T18:49:34.639Z,44.15
2019-05-23T18:52:10.716Z,48.42
2019-05-23T18:54:46.675Z,38.63
2019-05-23T18:57:24.636Z,45.78
2019-05-23T19:00:00.426Z,45.23
2019-05-23T19:02:36.487Z,44.48
2019-05-23T19:05:14.152Z,44.18
2019-05-23T19:07:51.408Z,47.00
2019-05-23T19:10:27.260Z,47.27
2019-05-23T19:13:02.983Z,43.40
2019-05-23T19:15:39.745Z,44.60
2019-05-23T19:18:17.520Z,37.08
2019-05-23T19:20:58.093Z,44.58
2019-05-23T19:23:33.760Z,39.70
2019-05-23T19:26:11.048Z,37.93
2019-05-23T19:28:46.657Z,40.60
2019-05-23T19:31:26.806Z,38.33
2019-05-23T19:34:06.848Z,33.75
2019-05-23T19:36:44.429Z,34.58
2019-05-23T19:39:20.109Z,36.42
2019-05-23T19:41:56.044Z,33.28
2019-05-23T19:44:36.741Z,32.73
2019-05-23T19:47:13.301Z,39.75
2019-05-23T19:49:48.888Z,40.75
2019-05-23T19:52:29.214Z,29.70
2019-05-23T19:55:04.924Z,34.70
2019-05-23T19:57:40.975Z,36.17
2019-05-23T20:00:25.021Z,36.03
2019-05-23T20:03:03.999Z,32.13
2019-05-23T20:05:44.033Z,31.33
2019-05-23T20:08:21.727Z,30.65
2019-05-23T20:10:58.865Z,29.57
2019-05-23T20:13:34.816Z,29.02
2019-05-23T20:16:11.816Z,29.65
2019-05-23T20:18:47.983Z,31.45
2019-05-23T20:21:25.419Z,28.60
2019-05-23T20:24:02.659Z,27.80
2019-05-23T20:26:40.042Z,22.75
2019-05-23T20:29:15.877Z,24.20
2019-05-23T20:31:51.493Z,26.63
2019-05-23T20:34:28.797Z,23.20
2019-05-23T20:37:06.184Z,23.20
2019-05-23T20:39:43.520Z,23.00
2019-05-23T20:42:19.391Z,29.52
2019-05-23T20:44:55.214Z,29.07
2019-05-23T20:47:31.097Z,23.95
2019-05-23T20:50:07.623Z,28.95
2019-05-23T20:52:44.901Z,33.02
2019-05-23T20:55:20.986Z,26.60
2019-05-23T20:57:56.728Z,35.68
2019-05-23T21:00:36.665Z,25.70
2019-05-23T21:03:12.436Z,27.98
2019-05-23T21:05:48.382Z,24.55
2019-05-23T21:08:24.416Z,25.33
2019-05-23T21:10:59.998Z,27.48
2019-05-23T21:13:38.178Z,24.30
2019-05-23T21:16:13.775Z,27.27
2019-05-23T21:18:50.117Z,26.35
2019-05-23T21:21:26.247Z,21.95
2019-05-23T21:24:01.848Z,26.87
2019-05-23T21:26:37.215Z,26.70
2019-05-23T21:29:12.939Z,26.90
2019-05-23T21:31:48.668Z,30.55
2019-05-23T21:34:25.656Z,27.75
2019-05-23T21:37:01.083Z,33.18
2019-05-23T21:39:36.908Z,32.10
2019-05-23T21:42:12.262Z,29.30
2019-05-23T21:44:47.844Z,32.50
2019-05-23T21:47:23.467Z,44.58
2019-05-23T21:49:59.040Z,29.85
2019-05-23T21:52:36.211Z,38.00
2019-05-23T21:55:12.655Z,102.35
2019-05-23T21:57:48.079Z,60.45
2019-05-23T22:00:26.640Z,38.38
2019-05-23T22:03:03.980Z,45.23
2019-05-23T22:05:41.005Z,37.38
2019-05-23T22:08:16.335Z,34.30
2019-05-23T22:10:52.056Z,31.10
2019-05-23T22:13:27.361Z,36.20
2019-05-23T22:16:03.479Z,26.05
2019-05-23T22:18:40.063Z,27.67
2019-05-23T22:21:17.823Z,36.20
2019-05-23T22:23:53.992Z,31.97
2019-05-23T22:26:30.234Z,45.78
2019-05-23T22:29:06.010Z,40.75
2019-05-23T22:31:41.914Z,25.35
2019-05-23T22:34:26.332Z,16.35
2019-05-23T22:37:03.767Z,22.35
2019-05-23T22:39:40.335Z,28.73
2019-05-23T22:42:16.820Z,34.15
2019-05-23T22:44:52.450Z,17.40
2019-05-23T22:47:33.111Z,27.93
2019-05-23T22:50:09.321Z,22.17
2019-05-23T22:52:45.212Z,24.27
2019-05-23T22:55:21.032Z,22.97
2019-05-23T22:57:58.261Z,19.65
2019-05-23T23:00:41.018Z,23.27
2019-05-23T23:03:17.795Z,20.85
2019-05-23T23:05:53.346Z,22.15
2019-05-23T23:08:29.678Z,23.17
2019-05-23T23:11:05.110Z,24.00
2019-05-23T23:13:41.245Z,25.32
2019-05-23T23:16:18.732Z,20.88
2019-05-23T23:18:55.140Z,19.48
2019-05-23T23:21:30.721Z,20.62
2019-05-23T23:24:06.754Z,23.55
2019-05-23T23:26:44.187Z,19.82
2019-05-23T23:29:20.442Z,26.17
2019-05-23T23:31:56.203Z,31.03
2019-05-23T23:34:32.129Z,24.35
2019-05-23T23:37:07.834Z,38.28
2019-05-23T23:39:44.700Z,25.08
2019-05-23T23:42:20.457Z,46.80
2019-05-23T23:44:55.026Z,32.38
2019-05-23T23:47:47.863Z,31.33
2019-05-23T23:50:41.063Z,26.70
2019-05-23T23:53:35.373Z,25.65
2019-05-23T23:56:28.711Z,29.55
2019-05-23T23:59:04.351Z,31.85
